^^
Station Historical Data
 
Daily Summary for July 20, 2018 Units:  English    Metric   Both
« Previous Day
Next Day »
Daily Weekly Monthly Yearly Custom
  Current: High: Low: Average:
Temperature: 80.2 °F 82.6 °F 58.3 °F 69.9 °F
Dew Point: 58.7 °F 63.7 °F 56.3 °F 60.1 °F
Humidity: 48% 97% 46% 74%
Wind Speed: 7.0mph 16.0mph 1.0mph 7.1mph
Wind Gust: 13.0mph 19.0mph - -
WindENE - - WSW
Pressure: 29.93 in 29.94 in 29.77 in -
Precipitation: 0.00 in      
Historical Graphs
 
 
Tabular Data for July 20, 2018
Time Temperature Dew Point Pressure Wind Wind Speed Wind Gust Humidity Rainfall Rate (Hourly) solar Conditions
00:04 65.1 °F 58.1 °F 29.77 in NW 5.0 mph 7.0 mph 78% 0.00 in 0.00 W/m2
00:09 64.7 °F 58.0 °F 29.77 in NW 4.0 mph 7.0 mph 79% 0.00 in 0.00 W/m2
00:14 64.4 °F 58.1 °F 29.77 in NW 3.0 mph 6.0 mph 80% 0.00 in 0.00 W/m2
00:19 64.2 °F 58.2 °F 29.77 in NW 4.0 mph 5.0 mph 81% 0.00 in 0.00 W/m2
00:24 64.2 °F 58.6 °F 29.78 in NW 4.0 mph 6.0 mph 82% 0.00 in 0.00 W/m2
00:29 64.1 °F 58.5 °F 29.78 in WNW 5.0 mph 6.0 mph 82% 0.00 in 0.00 W/m2
00:34 64.1 °F 58.5 °F 29.78 in NW 5.0 mph 6.0 mph 82% 0.00 in 0.00 W/m2
00:39 63.9 °F 58.6 °F 29.78 in NW 3.0 mph 6.0 mph 83% 0.00 in 0.00 W/m2
00:44 63.6 °F 58.3 °F 29.78 in NW 4.0 mph 5.0 mph 83% 0.00 in 0.00 W/m2
00:49 63.2 °F 58.3 °F 29.79 in NNW 3.0 mph 5.0 mph 84% 0.00 in 0.00 W/m2
00:54 62.7 °F 58.1 °F 29.79 in NW 3.0 mph 5.0 mph 85% 0.00 in 0.00 W/m2
00:59 62.4 °F 57.8 °F 29.79 in NNW 3.0 mph 5.0 mph 85% 0.00 in 0.00 W/m2
01:04 62.1 °F 57.9 °F 29.79 in NW 4.0 mph 6.0 mph 86% 0.00 in 0.00 W/m2
01:09 62.0 °F 58.1 °F 29.79 in NW 5.0 mph 6.0 mph 87% 0.00 in 0.00 W/m2
01:14 62.1 °F 58.5 °F 29.79 in NW 5.0 mph 8.0 mph 88% 0.00 in 0.00 W/m2
01:19 62.2 °F 58.6 °F 29.80 in NW 4.0 mph 8.0 mph 88% 0.00 in 0.00 W/m2
01:24 62.2 °F 58.6 °F 29.80 in WNW 5.0 mph 7.0 mph 88% 0.00 in 0.00 W/m2
01:29 62.4 °F 58.8 °F 29.79 in WNW 3.0 mph 6.0 mph 88% 0.00 in 0.00 W/m2
01:34 62.2 °F 58.3 °F 29.79 in WNW 4.0 mph 6.0 mph 87% 0.00 in 0.00 W/m2
01:39 61.9 °F 58.3 °F 29.79 in NW 5.0 mph 7.0 mph 88% 0.00 in 0.00 W/m2
01:44 61.7 °F 58.1 °F 29.79 in NW 1.0 mph 7.0 mph 88% 0.00 in 0.00 W/m2
01:49 61.5 °F 57.9 °F 29.80 in NW 2.0 mph 5.0 mph 88% 0.00 in 0.00 W/m2
01:54 61.3 °F 58.0 °F 29.80 in NW 1.0 mph 3.0 mph 89% 0.00 in 0.00 W/m2
01:59 61.2 °F 57.9 °F 29.80 in NW 2.0 mph 3.0 mph 89% 0.00 in 0.00 W/m2
02:04 61.1 °F 57.8 °F 29.80 in NW 2.0 mph 3.0 mph 89% 0.00 in 0.00 W/m2
02:09 61.0 °F 57.7 °F 29.80 in NW 2.0 mph 4.0 mph 89% 0.00 in 0.00 W/m2
02:14 60.8 °F 57.8 °F 29.80 in NW 1.0 mph 4.0 mph 90% 0.00 in 0.00 W/m2
02:19 60.6 °F 57.7 °F 29.81 in NW 3.0 mph 3.0 mph 90% 0.00 in 0.00 W/m2
02:24 60.2 °F 57.3 °F 29.81 in NW 5.0 mph 5.0 mph 90% 0.00 in 0.00 W/m2
02:29 60.0 °F 57.1 °F 29.81 in NW 1.0 mph 5.0 mph 90% 0.00 in 0.00 W/m2
02:34 60.0 °F 57.4 °F 29.81 in NW 2.0 mph 5.0 mph 91% 0.00 in 0.00 W/m2
02:39 60.0 °F 57.4 °F 29.81 in NW 2.0 mph 3.0 mph 91% 0.00 in 0.00 W/m2
02:44 59.9 °F 57.3 °F 29.81 in NNW 4.0 mph 4.0 mph 91% 0.00 in 0.00 W/m2
02:49 59.9 °F 57.3 °F 29.81 in NNW 4.0 mph 4.0 mph 91% 0.00 in 0.00 W/m2
02:54 60.1 °F 57.8 °F 29.82 in North 4.0 mph 5.0 mph 92% 0.00 in 0.00 W/m2
02:59 60.4 °F 58.1 °F 29.81 in NNW 4.0 mph 5.0 mph 92% 0.00 in 0.00 W/m2
03:04 60.4 °F 58.1 °F 29.82 in NNW 4.0 mph 5.0 mph 92% 0.00 in 0.00 W/m2
03:09 60.3 °F 58.0 °F 29.81 in NNW 3.0 mph 5.0 mph 92% 0.00 in 0.00 W/m2
03:14 60.3 °F 58.3 °F 29.82 in NNW 5.0 mph 5.0 mph 93% 0.00 in 0.00 W/m2
03:19 60.1 °F 58.1 °F 29.82 in NW 4.0 mph 6.0 mph 93% 0.00 in 0.00 W/m2
03:24 60.1 °F 58.1 °F 29.82 in NNW 5.0 mph 6.0 mph 93% 0.00 in 0.00 W/m2
03:29 59.9 °F 57.9 °F 29.82 in NW 1.0 mph 6.0 mph 93% 0.00 in 0.00 W/m2
03:34 59.6 °F 57.6 °F 29.82 in NW 1.0 mph 6.0 mph 93% 0.00 in 0.00 W/m2
03:39 59.4 °F 57.4 °F 29.82 in NW 1.0 mph 3.0 mph 93% 0.00 in 0.00 W/m2
03:44 59.1 °F 57.1 °F 29.82 in WNW 3.0 mph 3.0 mph 93% 0.00 in 0.00 W/m2
03:49 58.8 °F 56.8 °F 29.82 in WSW 3.0 mph 4.0 mph 93% 0.00 in 0.00 W/m2
03:54 58.3 °F 56.3 °F 29.82 in WNW 3.0 mph 4.0 mph 93% 0.00 in 0.00 W/m2
03:59 58.7 °F 57.0 °F 29.82 in NW 5.0 mph 5.0 mph 94% 0.00 in 0.00 W/m2
04:04 59.0 °F 57.3 °F 29.82 in NW 5.0 mph 6.0 mph 94% 0.00 in 0.00 W/m2
04:09 59.5 °F 57.8 °F 29.82 in NW 6.0 mph 7.0 mph 94% 0.00 in 0.00 W/m2
04:14 59.5 °F 57.8 °F 29.82 in NW 5.0 mph 7.0 mph 94% 0.00 in 0.00 W/m2
04:19 59.4 °F 57.7 °F 29.82 in NW 5.0 mph 7.0 mph 94% 0.00 in 0.00 W/m2
04:24 59.2 °F 57.5 °F 29.83 in NW 6.0 mph 7.0 mph 94% 0.00 in 0.00 W/m2
04:29 59.2 °F 57.5 °F 29.83 in NNW 4.0 mph 7.0 mph 94% 0.00 in 0.00 W/m2
04:34 59.2 °F 57.8 °F 29.83 in NW 4.0 mph 7.0 mph 95% 0.00 in 0.00 W/m2
04:39 59.0 °F 57.3 °F 29.83 in NW 4.0 mph 6.0 mph 94% 0.00 in 0.00 W/m2
04:44 58.9 °F 57.5 °F 29.83 in NNW 4.0 mph 6.0 mph 95% 0.00 in 0.00 W/m2
04:49 58.9 °F 57.5 °F 29.83 in NNW 5.0 mph 7.0 mph 95% 0.00 in 0.00 W/m2
04:54 58.9 °F 57.5 °F 29.83 in NNW 5.0 mph 7.0 mph 95% 0.00 in 0.00 W/m2
04:59 59.0 °F 57.6 °F 29.83 in North 7.0 mph 7.0 mph 95% 0.00 in 0.00 W/m2
05:04 59.0 °F 57.6 °F 29.83 in NNW 4.0 mph 7.0 mph 95% 0.00 in 0.00 W/m2
05:09 59.3 °F 57.9 °F 29.83 in NNW 7.0 mph 8.0 mph 95% 0.00 in 0.00 W/m2
05:14 59.7 °F 58.3 °F 29.83 in North 6.0 mph 9.0 mph 95% 0.00 in 0.00 W/m2
05:19 60.1 °F 59.0 °F 29.83 in NNW 6.0 mph 10.0 mph 96% 0.00 in 0.00 W/m2
05:24 60.5 °F 59.4 °F 29.83 in North 6.0 mph 12.0 mph 96% 0.00 in 0.00 W/m2
05:29 60.6 °F 59.2 °F 29.83 in North 8.0 mph 12.0 mph 95% 0.00 in 0.00 W/m2
05:34 60.6 °F 59.2 °F 29.83 in North 5.0 mph 10.0 mph 95% 0.00 in 0.00 W/m2
05:39 60.7 °F 59.3 °F 29.83 in NNW 6.0 mph 10.0 mph 95% 0.00 in 0.00 W/m2
05:44 60.7 °F 59.6 °F 29.83 in NNW 8.0 mph 10.0 mph 96% 0.00 in 0.00 W/m2
05:49 60.7 °F 59.6 °F 29.84 in North 7.0 mph 10.0 mph 96% 0.00 in 0.00 W/m2
05:54 60.6 °F 59.2 °F 29.84 in NNW 7.0 mph 10.0 mph 95% 0.00 in 0.00 W/m2
05:59 60.6 °F 59.2 °F 29.84 in NNW 4.0 mph 10.0 mph 95% 0.00 in 0.00 W/m2
06:04 60.6 °F 59.5 °F 29.84 in NNW 5.0 mph 8.0 mph 96% 0.00 in 0.00 W/m2
06:09 60.6 °F 59.5 °F 29.84 in NNW 3.0 mph 7.0 mph 96% 0.00 in 0.00 W/m2
06:14 60.8 °F 59.7 °F 29.85 in North 7.0 mph 9.0 mph 96% 0.00 in 0.00 W/m2
06:19 60.9 °F 59.8 °F 29.85 in North 5.0 mph 9.0 mph 96% 0.00 in 5.00 W/m2
06:24 61.1 °F 60.0 °F 29.85 in North 6.0 mph 8.0 mph 96% 0.00 in 9.00 W/m2
06:29 61.3 °F 60.2 °F 29.85 in NNW 4.0 mph 8.0 mph 96% 0.00 in 14.00 W/m2
06:34 61.3 °F 60.2 °F 29.86 in WNW 3.0 mph 8.0 mph 96% 0.00 in 14.00 W/m2
06:39 61.0 °F 59.9 °F 29.86 in West 5.0 mph 6.0 mph 96% 0.00 in 19.00 W/m2
06:44 60.5 °F 59.4 °F 29.86 in West 5.0 mph 7.0 mph 96% 0.00 in 18.00 W/m2
06:49 60.0 °F 58.6 °F 29.86 in West 5.0 mph 7.0 mph 95% 0.00 in 21.00 W/m2
06:54 59.9 °F 58.8 °F 29.87 in WNW 4.0 mph 7.0 mph 96% 0.00 in 35.00 W/m2
06:59 60.0 °F 58.9 °F 29.87 in WNW 4.0 mph 7.0 mph 96% 0.00 in 44.00 W/m2
07:04 60.3 °F 59.2 °F 29.87 in NW 3.0 mph 6.0 mph 96% 0.00 in 46.00 W/m2
07:09 60.5 °F 59.4 °F 29.87 in NNW 5.0 mph 6.0 mph 96% 0.00 in 46.00 W/m2
07:14 60.8 °F 59.7 °F 29.87 in NNW 4.0 mph 7.0 mph 96% 0.00 in 53.00 W/m2
07:19 60.9 °F 59.8 °F 29.87 in North 4.0 mph 7.0 mph 96% 0.00 in 54.00 W/m2
07:24 61.3 °F 60.2 °F 29.87 in NW 4.0 mph 8.0 mph 96% 0.00 in 76.00 W/m2
07:29 61.6 °F 60.7 °F 29.88 in NNW 5.0 mph 8.0 mph 97% 0.00 in 109.00 W/m2
07:34 61.9 °F 60.7 °F 29.88 in North 6.0 mph 8.0 mph 96% 0.00 in 120.00 W/m2
07:39 62.1 °F 60.9 °F 29.88 in NNW 7.0 mph 8.0 mph 96% 0.00 in 113.00 W/m2
07:44 62.5 °F 61.3 °F 29.88 in North 4.0 mph 9.0 mph 96% 0.00 in 128.00 W/m2
07:49 62.8 °F 61.9 °F 29.88 in NNW 7.0 mph 10.0 mph 97% 0.00 in 125.00 W/m2
07:54 62.6 °F 61.4 °F 29.89 in NNW 6.0 mph 10.0 mph 96% 0.00 in 158.00 W/m2
07:59 62.8 °F 61.6 °F 29.89 in NNW 8.0 mph 11.0 mph 96% 0.00 in 86.00 W/m2
08:04 62.7 °F 61.5 °F 29.89 in NW 7.0 mph 11.0 mph 96% 0.00 in 77.00 W/m2
08:09 62.8 °F 61.9 °F 29.89 in North 6.0 mph 11.0 mph 97% 0.00 in 62.00 W/m2
08:14 63.0 °F 62.1 °F 29.89 in North 7.0 mph 11.0 mph 97% 0.00 in 83.00 W/m2
08:19 63.3 °F 62.1 °F 29.89 in North 7.0 mph 11.0 mph 96% 0.00 in 116.00 W/m2
08:24 63.3 °F 62.1 °F 29.90 in NW 7.0 mph 11.0 mph 96% 0.00 in 91.00 W/m2
08:29 63.2 °F 62.0 °F 29.90 in NNW 8.0 mph 12.0 mph 96% 0.00 in 102.00 W/m2
08:34 63.4 °F 62.2 °F 29.90 in NW 10.0 mph 12.0 mph 96% 0.00 in 144.00 W/m2
08:39 63.9 °F 62.7 °F 29.90 in NW 8.0 mph 12.0 mph 96% 0.00 in 221.00 W/m2
08:44 64.8 °F 63.6 °F 29.90 in North 10.0 mph 12.0 mph 96% 0.00 in 364.00 W/m2
08:49 65.5 °F 63.7 °F 29.90 in NNW 9.0 mph 13.0 mph 94% 0.00 in 410.00 W/m2
08:54 66.3 °F 63.6 °F 29.90 in North 6.0 mph 13.0 mph 91% 0.00 in 404.00 W/m2
08:59 67.1 °F 63.7 °F 29.90 in NNE 11.0 mph 12.0 mph 89% 0.00 in 413.00 W/m2
09:04 67.7 °F 63.0 °F 29.90 in NW 10.0 mph 12.0 mph 85% 0.00 in 461.00 W/m2
09:09 68.6 °F 63.6 °F 29.90 in North 13.0 mph 13.0 mph 84% 0.00 in 469.00 W/m2
09:14 69.2 °F 62.8 °F 29.90 in North 10.0 mph 15.0 mph 80% 0.00 in 557.00 W/m2
09:19 69.8 °F 63.0 °F 29.90 in NW 8.0 mph 15.0 mph 79% 0.00 in 527.00 W/m2
09:24 70.1 °F 62.6 °F 29.90 in North 11.0 mph 15.0 mph 77% 0.00 in 524.00 W/m2
09:29 70.2 °F 62.3 °F 29.90 in NNW 11.0 mph 15.0 mph 76% 0.00 in 519.00 W/m2
09:34 69.6 °F 62.4 °F 29.90 in NW 6.0 mph 15.0 mph 78% 0.00 in 557.00 W/m2
09:39 69.8 °F 62.6 °F 29.90 in NNW 8.0 mph 14.0 mph 78% 0.00 in 548.00 W/m2
09:44 70.1 °F 62.6 °F 29.90 in NNW 13.0 mph 15.0 mph 77% 0.00 in 638.00 W/m2
09:49 70.4 °F 63.2 °F 29.90 in NNW 8.0 mph 15.0 mph 78% 0.00 in 664.00 W/m2
09:54 71.3 °F 63.7 °F 29.90 in NNW 9.0 mph 15.0 mph 77% 0.00 in 636.00 W/m2
09:59 71.5 °F 62.4 °F 29.90 in NW 12.0 mph 16.0 mph 73% 0.00 in 738.00 W/m2
10:04 71.2 °F 62.5 °F 29.90 in North 7.0 mph 16.0 mph 74% 0.00 in 410.00 W/m2
10:09 72.1 °F 63.4 °F 29.89 in NNW 11.0 mph 15.0 mph 74% 0.00 in 779.00 W/m2
10:14 71.7 °F 62.2 °F 29.90 in NNW 11.0 mph 15.0 mph 72% 0.00 in 244.00 W/m2
10:19 72.3 °F 62.8 °F 29.90 in North 13.0 mph 16.0 mph 72% 0.00 in 745.00 W/m2
10:24 72.9 °F 62.5 °F 29.90 in North 16.0 mph 16.0 mph 70% 0.00 in 788.00 W/m2
10:29 73.1 °F 61.9 °F 29.90 in North 9.0 mph 16.0 mph 68% 0.00 in 267.00 W/m2
10:34 72.4 °F 62.9 °F 29.90 in NNW 8.0 mph 16.0 mph 72% 0.00 in 819.00 W/m2
10:39 72.4 °F 60.4 °F 29.90 in NNW 13.0 mph 16.0 mph 66% 0.00 in 221.00 W/m2
10:44 71.3 °F 60.2 °F 29.90 in NNW 11.0 mph 18.0 mph 68% 0.00 in 192.00 W/m2
10:49 70.8 °F 60.1 °F 29.90 in NW 8.0 mph 18.0 mph 69% 0.00 in 158.00 W/m2
10:54 71.8 °F 61.5 °F 29.90 in NW 12.0 mph 16.0 mph 70% 0.00 in 817.00 W/m2
10:59 71.9 °F 60.8 °F 29.90 in NNW 12.0 mph 16.0 mph 68% 0.00 in 798.00 W/m2
11:04 71.5 °F 60.8 °F 29.90 in North 12.0 mph 14.0 mph 69% 0.00 in 179.00 W/m2
11:09 72.4 °F 62.1 °F 29.90 in NNE 13.0 mph 14.0 mph 70% 0.00 in 789.00 W/m2
11:14 73.8 °F 63.0 °F 29.90 in North 12.0 mph 16.0 mph 69% 0.00 in 868.00 W/m2
11:19 74.7 °F 61.7 °F 29.90 in North 7.0 mph 16.0 mph 64% 0.00 in 877.00 W/m2
11:24 75.3 °F 61.8 °F 29.90 in NNW 6.0 mph 16.0 mph 63% 0.00 in 171.00 W/m2
11:29 74.2 °F 63.0 °F 29.91 in North 11.0 mph 13.0 mph 68% 0.00 in 721.00 W/m2
11:34 74.7 °F 62.1 °F 29.91 in NNE 12.0 mph 13.0 mph 65% 0.00 in 722.00 W/m2
11:39 75.3 °F 62.3 °F 29.91 in NNW 9.0 mph 17.0 mph 64% 0.00 in 729.00 W/m2
11:44 76.0 °F 62.9 °F 29.91 in NW 7.0 mph 17.0 mph 64% 0.00 in 788.00 W/m2
11:49 75.3 °F 61.4 °F 29.91 in NNW 8.0 mph 13.0 mph 62% 0.00 in 849.00 W/m2
11:54 75.9 °F 62.4 °F 29.90 in NNE 7.0 mph 14.0 mph 63% 0.00 in 833.00 W/m2
11:59 76.7 °F 62.2 °F 29.91 in NNE 9.0 mph 14.0 mph 61% 0.00 in 930.00 W/m2
12:04 77.2 °F 62.7 °F 29.91 in NNW 13.0 mph 15.0 mph 61% 0.00 in 946.00 W/m2
12:09 77.4 °F 61.5 °F 29.91 in North 7.0 mph 15.0 mph 58% 0.00 in 329.00 W/m2
12:14 77.1 °F 61.2 °F 29.91 in NW 5.0 mph 15.0 mph 58% 0.00 in 292.00 W/m2
12:19 75.7 °F 60.8 °F 29.91 in NNE 7.0 mph 15.0 mph 60% 0.00 in 387.00 W/m2
12:24 75.6 °F 62.6 °F 29.91 in NNW 13.0 mph 15.0 mph 64% 0.00 in 1097.00 W/m2
12:29 76.2 °F 60.8 °F 29.91 in North 8.0 mph 16.0 mph 59% 0.00 in 1121.00 W/m2
12:34 77.4 °F 62.4 °F 29.91 in NNE 13.0 mph 17.0 mph 60% 0.00 in 1206.00 W/m2
12:39 77.7 °F 61.7 °F 29.91 in North 8.0 mph 17.0 mph 58% 0.00 in 1021.00 W/m2
12:44 77.9 °F 61.4 °F 29.91 in NNE 13.0 mph 17.0 mph 57% 0.00 in 330.00 W/m2
12:49 77.5 °F 61.1 °F 29.91 in NNE 8.0 mph 13.0 mph 57% 0.00 in 664.00 W/m2
12:54 76.8 °F 60.9 °F 29.91 in North 11.0 mph 13.0 mph 58% 0.00 in 313.00 W/m2
12:59 76.7 °F 61.8 °F 29.91 in NW 10.0 mph 13.0 mph 60% 0.00 in 1158.00 W/m2
13:04 76.7 °F 61.3 °F 29.91 in NNE 9.0 mph 18.0 mph 59% 0.00 in 315.00 W/m2
13:09 76.3 °F 60.4 °F 29.91 in North 7.0 mph 18.0 mph 58% 0.00 in 369.00 W/m2
13:14 76.4 °F 61.0 °F 29.91 in NW 6.0 mph 12.0 mph 59% 0.00 in 1044.00 W/m2
13:19 76.8 °F 61.9 °F 29.91 in NNW 12.0 mph 15.0 mph 60% 0.00 in 1165.00 W/m2
13:24 77.1 °F 60.2 °F 29.91 in NNW 8.0 mph 16.0 mph 56% 0.00 in 220.00 W/m2
13:29 77.6 °F 61.7 °F 29.91 in North 14.0 mph 16.0 mph 58% 0.00 in 1074.00 W/m2
13:34 78.1 °F 61.1 °F 29.91 in NNW 13.0 mph 17.0 mph 56% 0.00 in 390.00 W/m2
13:39 77.5 °F 61.1 °F 29.92 in NNW 8.0 mph 19.0 mph 57% 0.00 in 972.00 W/m2
13:44 77.4 °F 60.0 °F 29.91 in NNW 7.0 mph 19.0 mph 55% 0.00 in 979.00 W/m2
13:49 76.9 °F 59.5 °F 29.91 in NNW 9.0 mph 13.0 mph 55% 0.00 in 1118.00 W/m2
13:54 77.1 °F 61.7 °F 29.91 in North 12.0 mph 16.0 mph 59% 0.00 in 279.00 W/m2
13:59 78.4 °F 61.4 °F 29.91 in NE 8.0 mph 16.0 mph 56% 0.00 in 1049.00 W/m2
14:04 79.7 °F 60.5 °F 29.91 in NNW 6.0 mph 13.0 mph 52% 0.00 in 1056.00 W/m2
14:09 79.8 °F 60.6 °F 29.91 in NNE 9.0 mph 16.0 mph 52% 0.00 in 1076.00 W/m2
14:14 79.7 °F 61.6 °F 29.91 in NNW 10.0 mph 16.0 mph 54% 0.00 in 1109.00 W/m2
14:19 78.6 °F 60.0 °F 29.91 in North 10.0 mph 15.0 mph 53% 0.00 in 288.00 W/m2
14:24 78.7 °F 60.1 °F 29.91 in NNW 8.0 mph 15.0 mph 53% 0.00 in 1072.00 W/m2
14:29 78.4 °F 59.3 °F 29.91 in North 5.0 mph 12.0 mph 52% 0.00 in 381.00 W/m2
14:34 78.8 °F 60.2 °F 29.91 in NW 13.0 mph 14.0 mph 53% 0.00 in 283.00 W/m2
14:39 78.1 °F 60.1 °F 29.91 in North 6.0 mph 15.0 mph 54% 0.00 in 241.00 W/m2
14:44 78.2 °F 61.2 °F 29.91 in NNW 10.0 mph 15.0 mph 56% 0.00 in 969.00 W/m2
14:49 79.7 °F 60.5 °F 29.91 in North 12.0 mph 13.0 mph 52% 0.00 in 1055.00 W/m2
14:54 80.2 °F 59.9 °F 29.91 in NNE 8.0 mph 14.0 mph 50% 0.00 in 1039.00 W/m2
14:59 81.0 °F 61.7 °F 29.91 in North 9.0 mph 14.0 mph 52% 0.00 in 1025.00 W/m2
15:04 81.0 °F 58.3 °F 29.90 in NE 8.0 mph 13.0 mph 46% 0.00 in 1020.00 W/m2
15:09 80.7 °F 59.8 °F 29.90 in North 10.0 mph 17.0 mph 49% 0.00 in 531.00 W/m2
15:14 80.4 °F 60.6 °F 29.90 in NNE 6.0 mph 17.0 mph 51% 0.00 in 1016.00 W/m2
15:19 81.4 °F 61.5 °F 29.90 in NNE 14.0 mph 16.0 mph 51% 0.00 in 960.00 W/m2
15:24 81.5 °F 61.1 °F 29.90 in NE 8.0 mph 16.0 mph 50% 0.00 in 956.00 W/m2
15:29 81.5 °F 60.5 °F 29.90 in NNW 12.0 mph 19.0 mph 49% 0.00 in 988.00 W/m2
15:34 80.9 °F 58.8 °F 29.90 in NNW 6.0 mph 19.0 mph 47% 0.00 in 923.00 W/m2
15:39 80.8 °F 59.9 °F 29.90 in NNW 6.0 mph 15.0 mph 49% 0.00 in 923.00 W/m2
15:44 81.2 °F 61.9 °F 29.90 in NNE 13.0 mph 16.0 mph 52% 0.00 in 1004.00 W/m2
15:49 81.0 °F 60.6 °F 29.90 in NNE 11.0 mph 17.0 mph 50% 0.00 in 239.00 W/m2
15:54 81.0 °F 59.5 °F 29.90 in North 8.0 mph 17.0 mph 48% 0.00 in 888.00 W/m2
15:59 81.0 °F 59.5 °F 29.90 in NNW 15.0 mph 16.0 mph 48% 0.00 in 984.00 W/m2
16:04 80.4 °F 60.1 °F 29.90 in NNE 12.0 mph 17.0 mph 50% 0.00 in 195.00 W/m2
16:09 79.8 °F 61.7 °F 29.90 in NNE 8.0 mph 17.0 mph 54% 0.00 in 809.00 W/m2
16:14 80.6 °F 61.9 °F 29.90 in North 13.0 mph 15.0 mph 53% 0.00 in 796.00 W/m2
16:19 81.4 °F 61.0 °F 29.90 in NNE 8.0 mph 15.0 mph 50% 0.00 in 844.00 W/m2
16:24 81.9 °F 60.9 °F 29.90 in NNW 7.0 mph 15.0 mph 49% 0.00 in 809.00 W/m2
16:29 81.8 °F 60.2 °F 29.90 in NNE 7.0 mph 14.0 mph 48% 0.00 in 835.00 W/m2
16:34 81.8 °F 61.9 °F 29.90 in NNE 13.0 mph 15.0 mph 51% 0.00 in 842.00 W/m2
16:39 82.2 °F 61.1 °F 29.90 in North 10.0 mph 15.0 mph 49% 0.00 in 877.00 W/m2
16:44 82.5 °F 61.4 °F 29.90 in North 9.0 mph 14.0 mph 49% 0.00 in 891.00 W/m2
16:49 82.6 °F 61.5 °F 29.90 in North 14.0 mph 15.0 mph 49% 0.00 in 877.00 W/m2
16:54 82.3 °F 60.6 °F 29.90 in NNE 5.0 mph 15.0 mph 48% 0.00 in 364.00 W/m2
16:59 82.1 °F 61.6 °F 29.91 in North 12.0 mph 13.0 mph 50% 0.00 in 666.00 W/m2
17:04 82.3 °F 61.2 °F 29.90 in NNE 9.0 mph 13.0 mph 49% 0.00 in 751.00 W/m2
17:09 82.5 °F 61.4 °F 29.90 in NNE 9.0 mph 12.0 mph 49% 0.00 in 780.00 W/m2
17:14 82.2 °F 61.1 °F 29.91 in North 7.0 mph 16.0 mph 49% 0.00 in 756.00 W/m2
17:19 82.2 °F 61.1 °F 29.91 in NE 7.0 mph 16.0 mph 49% 0.00 in 766.00 W/m2
17:24 82.4 °F 61.3 °F 29.91 in NNE 7.0 mph 13.0 mph 49% 0.00 in 779.00 W/m2
17:29 82.0 °F 59.8 °F 29.91 in NNE 6.0 mph 13.0 mph 47% 0.00 in 719.00 W/m2
17:34 81.9 °F 60.3 °F 29.91 in NE 5.0 mph 13.0 mph 48% 0.00 in 682.00 W/m2
17:39 81.3 °F 60.3 °F 29.91 in NNW 13.0 mph 13.0 mph 49% 0.00 in 633.00 W/m2
17:44 81.5 °F 59.9 °F 29.91 in NNE 6.0 mph 15.0 mph 48% 0.00 in 591.00 W/m2
17:49 81.5 °F 60.5 °F 29.91 in NE 9.0 mph 15.0 mph 49% 0.00 in 584.00 W/m2
17:54 81.1 °F 60.1 °F 29.92 in NE 9.0 mph 14.0 mph 49% 0.00 in 612.00 W/m2
17:59 80.6 °F 59.7 °F 29.92 in NE 7.0 mph 18.0 mph 49% 0.00 in 608.00 W/m2
18:04 80.3 °F 60.0 °F 29.92 in NNE 8.0 mph 18.0 mph 50% 0.00 in 543.00 W/m2
18:09 80.8 °F 59.9 °F 29.92 in North 7.0 mph 15.0 mph 49% 0.00 in 512.00 W/m2
18:14 81.1 °F 59.6 °F 29.92 in NE 8.0 mph 14.0 mph 48% 0.00 in 496.00 W/m2
18:19 80.9 °F 58.2 °F 29.92 in NE 6.0 mph 12.0 mph 46% 0.00 in 482.00 W/m2
18:24 80.5 °F 57.8 °F 29.93 in ENE 5.0 mph 12.0 mph 46% 0.00 in 471.00 W/m2
18:29 80.3 °F 58.2 °F 29.93 in ENE 10.0 mph 14.0 mph 47% 0.00 in 378.00 W/m2
18:34 80.0 °F 58.5 °F 29.93 in NE 8.0 mph 14.0 mph 48% 0.00 in 446.00 W/m2
18:39 80.0 °F 59.1 °F 29.93 in NE 9.0 mph 14.0 mph 49% 0.00 in 427.00 W/m2
18:44 79.4 °F 58.0 °F 29.93 in NE 8.0 mph 14.0 mph 48% 0.00 in 410.00 W/m2
18:49 78.7 °F 57.4 °F 29.93 in NE 8.0 mph 12.0 mph 48% 0.00 in 62.00 W/m2
18:54 78.9 °F 59.2 °F 29.93 in North 4.0 mph 12.0 mph 51% 0.00 in 380.00 W/m2
18:59 79.4 °F 58.6 °F 29.94 in NNE 6.0 mph 12.0 mph 49% 0.00 in 366.00 W/m2
19:04 79.8 °F 59.5 °F 29.94 in NNE 7.0 mph 13.0 mph 50% 0.00 in 352.00 W/m2
19:09 80.2 °F 58.7 °F 29.93 in ENE 7.0 mph 13.0 mph 48% 0.00 in 334.00 W/m2
Bismarck, North Dakota, USA
Compliments of Weather Underground - 4 mb